createdAt,value
2023-02-12T00:01:13.187Z,103949.19
2023-02-12T00:03:41.081Z,103947.31
2023-02-12T00:06:09.099Z,103900.56
2023-02-12T00:08:36.550Z,103954.69
2023-02-12T00:11:15.031Z,103958.00
2023-02-12T00:13:42.215Z,103964.75
2023-02-12T00:16:11.138Z,103959.53
2023-02-12T00:18:37.677Z,103948.53
2023-02-12T00:21:04.428Z,103949.72
2023-02-12T00:23:30.836Z,103962.94
2023-02-12T00:25:57.518Z,103956.72
2023-02-12T00:28:24.110Z,103960.63
2023-02-12T00:30:50.665Z,103954.94
2023-02-12T00:33:17.159Z,103954.94
2023-02-12T00:35:43.952Z,103955.78
2023-02-12T00:38:10.439Z,103938.94
2023-02-12T00:40:36.842Z,103933.47
2023-02-12T00:43:03.272Z,103964.81
2023-02-12T00:45:29.633Z,103946.50
2023-02-12T00:47:56.013Z,103920.97
2023-02-12T00:50:22.405Z,103967.13
2023-02-12T00:52:48.754Z,103965.91
2023-02-12T00:55:15.236Z,103963.69
2023-02-12T00:57:41.614Z,103963.34
2023-02-12T01:00:08.488Z,103975.50
2023-02-12T01:02:34.853Z,103969.63
2023-02-12T01:05:01.776Z,103971.13
2023-02-12T01:07:28.129Z,103975.50
2023-02-12T01:09:54.489Z,103976.66
2023-02-12T01:12:20.909Z,103977.53
2023-02-12T01:14:47.436Z,103960.16
2023-02-12T01:17:13.979Z,103956.56
2023-02-12T01:19:40.676Z,103984.81
2023-02-12T01:22:07.070Z,103979.38
2023-02-12T01:24:33.513Z,103982.63
2023-02-12T01:26:59.913Z,103979.09
2023-02-12T01:29:26.301Z,103978.44
2023-02-12T01:31:52.853Z,103976.66
2023-02-12T01:34:19.336Z,103968.88
2023-02-12T01:36:45.757Z,103976.50
2023-02-12T01:39:12.563Z,103975.91
2023-02-12T01:41:44.685Z,103975.63
2023-02-12T01:44:24.527Z,103964.16
2023-02-12T01:46:57.374Z,103962.56
2023-02-12T01:49:34.884Z,103968.06
2023-02-12T01:52:21.336Z,103970.66
2023-02-12T01:54:50.021Z,103963.72
2023-02-12T01:57:17.921Z,103939.69
2023-02-12T01:59:47.153Z,103966.25
2023-02-12T02:02:14.210Z,103967.13
2023-02-12T02:04:46.622Z,103974.50
2023-02-12T02:07:13.322Z,103969.44
2023-02-12T02:09:40.777Z,103967.25
2023-02-12T02:12:26.840Z,103961.91
2023-02-12T02:14:57.187Z,103969.28
2023-02-12T02:17:23.493Z,103969.81
2023-02-12T02:19:49.802Z,103968.88
2023-02-12T02:22:24.890Z,103972.75
2023-02-12T02:25:03.765Z,103969.56
2023-02-12T02:27:43.529Z,103960.63
2023-02-12T02:30:26.933Z,103949.13
2023-02-12T02:33:02.438Z,103963.66
2023-02-12T02:35:40.575Z,103958.47
2023-02-12T02:38:29.943Z,103959.06
2023-02-12T02:41:09.523Z,103954.47
2023-02-12T02:43:51.387Z,103954.47
2023-02-12T02:46:27.661Z,103961.56
2023-02-12T02:49:00.002Z,103955.81
2023-02-12T02:51:30.929Z,103951.47
2023-02-12T02:54:06.242Z,103963.53
2023-02-12T02:56:36.143Z,103956.38
2023-02-12T02:59:26.617Z,103960.63
2023-02-12T03:02:09.111Z,103915.00
2023-02-12T03:04:41.143Z,103952.31
2023-02-12T03:07:16.394Z,103957.78
2023-02-12T03:09:49.473Z,103951.81
2023-02-12T03:12:25.765Z,103958.75
2023-02-12T03:14:58.253Z,103959.75
2023-02-12T03:17:36.801Z,103954.00
2023-02-12T03:20:14.255Z,103943.31
2023-02-12T03:22:45.109Z,103953.25
2023-02-12T03:25:18.718Z,103954.34
2023-02-12T03:28:09.687Z,103956.38
2023-02-12T03:30:51.300Z,103952.63
2023-02-12T03:33:32.584Z,103954.53
2023-02-12T03:36:28.288Z,103957.31
2023-02-12T03:38:58.231Z,103952.84
2023-02-12T03:41:31.058Z,103951.97
2023-02-12T03:44:05.916Z,103954.78
2023-02-12T03:46:50.724Z,103951.97
2023-02-12T03:49:31.438Z,103950.94
2023-02-12T03:51:58.740Z,103952.19
2023-02-12T03:54:25.502Z,103945.47
2023-02-12T03:57:04.823Z,103953.25
2023-02-12T03:59:31.476Z,103964.69
2023-02-12T04:01:59.461Z,103950.59
2023-02-12T04:04:27.037Z,103965.97
2023-02-12T04:06:54.560Z,103965.09
2023-02-12T04:09:23.369Z,103967.94
2023-02-12T04:12:23.706Z,103968.41
2023-02-12T04:15:05.144Z,103968.06
2023-02-12T04:18:05.437Z,103969.88
2023-02-12T04:20:57.556Z,103965.69
2023-02-12T04:23:45.463Z,103977.53
2023-02-12T04:26:59.461Z,103972.72
2023-02-12T04:29:48.339Z,103966.78
2023-02-12T04:32:28.526Z,103944.88
2023-02-12T04:35:05.049Z,103977.94
2023-02-12T04:37:41.952Z,103945.69
2023-02-12T04:40:13.421Z,103975.66
2023-02-12T04:42:47.945Z,103950.81
2023-02-12T04:45:20.371Z,103966.25
2023-02-12T04:47:47.113Z,103982.50
2023-02-12T04:50:13.827Z,103966.13
2023-02-12T04:52:40.253Z,103948.75
2023-02-12T04:55:06.779Z,103960.91
2023-02-12T04:57:33.147Z,103976.94
2023-02-12T04:59:59.588Z,103963.69
2023-02-12T05:02:25.934Z,103986.91
2023-02-12T05:04:52.488Z,103979.69
2023-02-12T05:07:18.938Z,103984.53
2023-02-12T05:09:45.331Z,103985.31
2023-02-12T05:12:11.684Z,103963.63
2023-02-12T05:14:38.124Z,103987.84
2023-02-12T05:17:04.528Z,103982.41
2023-02-12T05:19:30.964Z,103989.50
2023-02-12T05:21:57.438Z,103993.09
2023-02-12T05:24:23.844Z,103992.38
2023-02-12T05:26:50.834Z,103998.66
2023-02-12T05:29:17.652Z,103975.06
2023-02-12T05:31:44.228Z,103994.13
2023-02-12T05:34:12.356Z,103996.00
2023-02-12T05:36:39.530Z,103994.34
2023-02-12T05:39:07.295Z,103955.75
2023-02-12T05:41:36.508Z,103988.03
2023-02-12T05:44:04.808Z,103986.13
2023-02-12T05:46:31.351Z,103990.53
2023-02-12T05:48:58.041Z,103991.47
2023-02-12T05:51:26.434Z,103974.53
2023-02-12T05:53:57.450Z,103988.03
2023-02-12T05:56:27.165Z,103992.44
2023-02-12T05:58:59.129Z,103991.41
2023-02-12T06:01:28.447Z,103981.94
2023-02-12T06:03:55.391Z,103996.22
2023-02-12T06:06:21.863Z,104004.28
2023-02-12T06:08:49.719Z,104012.44
2023-02-12T06:11:17.390Z,104012.56
2023-02-12T06:13:44.525Z,103976.19
2023-02-12T06:16:22.625Z,104015.78
2023-02-12T06:18:50.057Z,104013.31
2023-02-12T06:21:17.886Z,104017.91
2023-02-12T06:23:44.688Z,104013.88
2023-02-12T06:26:11.327Z,104023.97
2023-02-12T06:28:38.281Z,104024.81
2023-02-12T06:31:05.197Z,104017.25
2023-02-12T06:33:32.095Z,104028.53
2023-02-12T06:35:58.596Z,104010.72
2023-02-12T06:38:25.020Z,104031.69
2023-02-12T06:40:51.363Z,104035.13
2023-02-12T06:43:17.884Z,104033.75
2023-02-12T06:45:44.326Z,104040.69
2023-02-12T06:48:10.726Z,104043.41
2023-02-12T06:50:37.123Z,104054.38
2023-02-12T06:53:03.854Z,104051.25
2023-02-12T06:55:30.219Z,104052.38
2023-02-12T06:57:56.595Z,104052.09
2023-02-12T07:00:23.865Z,104053.84
2023-02-12T07:02:55.082Z,104057.31
2023-02-12T07:05:22.212Z,104042.38
2023-02-12T07:07:48.978Z,104071.06
2023-02-12T07:10:15.436Z,104067.66
2023-02-12T07:12:41.803Z,104070.78
2023-02-12T07:15:08.662Z,104076.81
2023-02-12T07:17:35.220Z,104077.88
2023-02-12T07:20:02.476Z,104072.63
2023-02-12T07:22:28.855Z,104063.47
2023-02-12T07:24:55.188Z,104087.34
2023-02-12T07:27:21.558Z,104099.88
2023-02-12T07:29:48.067Z,104093.72
2023-02-12T07:32:14.507Z,104097.69
2023-02-12T07:34:40.933Z,104096.97
2023-02-12T07:37:07.725Z,104093.16
2023-02-12T07:39:34.118Z,104092.16
2023-02-12T07:42:00.500Z,104097.50
2023-02-12T07:44:27.014Z,104090.13
2023-02-12T07:46:53.403Z,104097.88
2023-02-12T07:49:21.784Z,104097.81
2023-02-12T07:51:49.896Z,104098.75
2023-02-12T07:54:16.922Z,104098.75
2023-02-12T07:56:46.798Z,104103.38
2023-02-12T07:59:16.622Z,104106.16
2023-02-12T08:01:50.492Z,104085.06
2023-02-12T08:04:23.666Z,104102.22
2023-02-12T08:06:52.149Z,104105.63
2023-02-12T08:09:22.027Z,104105.88
2023-02-12T08:11:48.677Z,104116.03
2023-02-12T08:14:17.830Z,104117.50
2023-02-12T08:16:46.417Z,104108.81
2023-02-12T08:19:20.481Z,104115.94
2023-02-12T08:21:52.603Z,104108.69
2023-02-12T08:24:19.111Z,104120.78
2023-02-12T08:26:45.691Z,104126.13
2023-02-12T08:29:18.654Z,104122.81
2023-02-12T08:31:47.311Z,104121.78
2023-02-12T08:34:19.684Z,104118.00
2023-02-12T08:36:47.468Z,104121.97
2023-02-12T08:39:14.687Z,104122.88
2023-02-12T08:41:42.268Z,104116.91
2023-02-12T08:44:09.097Z,104125.94
2023-02-12T08:46:38.048Z,104120.78
2023-02-12T08:49:06.987Z,104124.47
2023-02-12T08:51:35.838Z,104118.66
2023-02-12T08:54:05.513Z,104126.94
2023-02-12T08:56:33.418Z,104134.47
2023-02-12T08:59:00.967Z,104121.31
2023-02-12T09:01:30.096Z,104142.13
2023-02-12T09:03:56.579Z,104097.28
2023-02-12T09:06:24.816Z,104135.47
2023-02-12T09:08:52.832Z,104135.75
2023-02-12T09:11:30.370Z,104143.06
2023-02-12T09:14:02.786Z,104119.13
2023-02-12T09:16:31.453Z,104145.44
2023-02-12T09:18:58.145Z,104146.59
2023-02-12T09:21:25.218Z,104147.47
2023-02-12T09:23:51.889Z,104150.72
2023-02-12T09:26:20.704Z,104150.22
2023-02-12T09:28:48.682Z,104141.38
2023-02-12T09:31:22.932Z,104135.16
2023-02-12T09:33:53.276Z,104143.59
2023-02-12T09:36:21.480Z,104132.22
2023-02-12T09:38:49.191Z,104155.56
2023-02-12T09:41:50.916Z,104157.94
2023-02-12T09:44:33.322Z,104146.03
2023-02-12T09:47:05.136Z,104126.06
2023-02-12T09:49:54.434Z,104153.69
2023-02-12T09:52:26.583Z,104162.69
2023-02-12T09:54:53.972Z,104157.66
2023-02-12T09:57:31.614Z,104159.69
2023-02-12T10:00:11.893Z,104158.94
2023-02-12T10:02:40.383Z,104159.75
2023-02-12T10:05:29.088Z,104161.41
2023-02-12T10:08:15.376Z,104156.44
2023-02-12T10:10:51.522Z,104160.03
2023-02-12T10:13:39.046Z,104163.06
2023-02-12T10:16:33.600Z,104156.03
2023-02-12T10:19:06.111Z,104166.88
2023-02-12T10:21:44.745Z,104155.78
2023-02-12T10:24:29.985Z,104164.13
2023-02-12T10:27:00.548Z,104167.53
2023-02-12T10:29:31.874Z,104171.84
2023-02-12T10:32:07.773Z,104169.78
2023-02-12T10:34:36.925Z,104171.47
2023-02-12T10:37:43.711Z,104173.28
2023-02-12T10:40:24.089Z,104169.47
2023-02-12T10:42:52.318Z,104170.00
2023-02-12T10:45:22.307Z,104164.44
2023-02-12T10:47:53.985Z,104137.78
2023-02-12T10:50:52.123Z,104161.22
2023-02-12T10:53:25.772Z,104165.81
2023-02-12T10:56:21.659Z,104169.53
2023-02-12T10:58:59.666Z,104167.97
2023-02-12T11:01:31.917Z,104139.97
2023-02-12T11:04:00.843Z,104181.13
2023-02-12T11:06:33.079Z,104177.94
2023-02-12T11:08:59.774Z,104143.56
2023-02-12T11:11:31.555Z,104166.97
2023-02-12T11:14:02.693Z,104123.94
2023-02-12T11:16:33.200Z,104135.53
2023-02-12T11:19:04.644Z,104168.53
2023-02-12T11:21:32.401Z,104172.03
2023-02-12T11:24:22.820Z,104158.50
2023-02-12T11:26:49.226Z,104156.41
2023-02-12T11:29:24.501Z,104151.53
2023-02-12T11:32:15.875Z,104143.13
2023-02-12T11:34:42.353Z,104126.22
2023-02-12T11:37:19.696Z,104142.28
2023-02-12T11:39:48.279Z,104132.69
2023-02-12T11:42:20.837Z,104137.19
2023-02-12T11:44:55.200Z,104134.41
2023-02-12T11:47:26.506Z,104135.63
2023-02-12T11:50:22.451Z,104131.59
2023-02-12T11:52:52.009Z,104138.19
2023-02-12T11:55:30.989Z,104130.81
2023-02-12T11:58:26.006Z,104123.63
2023-02-12T12:01:20.101Z,104124.66
2023-02-12T12:03:59.521Z,104090.75
2023-02-12T12:06:31.615Z,104118.06
2023-02-12T12:09:29.496Z,104118.06
2023-02-12T12:12:21.648Z,104107.81
2023-02-12T12:15:14.265Z,104092.13
2023-02-12T12:18:08.624Z,104090.06
2023-02-12T12:21:01.617Z,104094.50
2023-02-12T12:23:34.925Z,104098.31
2023-02-12T12:26:08.204Z,104092.88
2023-02-12T12:28:48.928Z,104098.63
2023-02-12T12:31:33.634Z,104100.25
2023-02-12T12:34:08.693Z,104090.25
2023-02-12T12:36:53.071Z,104100.63
2023-02-12T12:39:28.949Z,104102.25
2023-02-12T12:42:22.877Z,104103.16
2023-02-12T12:45:08.573Z,104102.41
2023-02-12T12:47:53.283Z,104096.19
2023-02-12T12:50:25.742Z,104100.00
2023-02-12T12:53:02.821Z,104100.56
2023-02-12T12:55:44.704Z,104100.56
2023-02-12T12:58:34.124Z,104097.91
2023-02-12T13:01:15.715Z,104097.53
2023-02-12T13:04:01.185Z,104097.56
2023-02-12T13:06:58.472Z,104084.84
2023-02-12T13:09:38.764Z,104064.91
2023-02-12T13:12:19.930Z,104084.75
2023-02-12T13:15:04.116Z,104058.25
2023-02-12T13:17:46.903Z,104074.47
2023-02-12T13:20:35.627Z,104040.78
2023-02-12T13:23:10.620Z,104056.84
2023-02-12T13:26:05.369Z,104057.88
2023-02-12T13:28:42.226Z,104058.53
2023-02-12T13:31:32.060Z,104059.63
2023-02-12T13:34:02.522Z,104064.63
2023-02-12T13:36:28.942Z,104057.81
2023-02-12T13:39:27.703Z,104062.22
2023-02-12T13:42:22.535Z,104053.97
2023-02-12T13:45:08.360Z,104054.81
2023-02-12T13:47:39.505Z,104041.47
2023-02-12T13:50:24.577Z,104058.72
2023-02-12T13:52:56.679Z,104042.53
2023-02-12T13:55:34.651Z,104048.44
2023-02-12T13:58:35.008Z,104064.00
2023-02-12T14:01:12.855Z,104054.56
2023-02-12T14:03:39.859Z,104053.63
2023-02-12T14:06:11.185Z,104056.31
2023-02-12T14:08:40.915Z,104061.31
2023-02-12T14:11:12.438Z,104053.81
2023-02-12T14:13:56.169Z,104056.22
2023-02-12T14:16:28.470Z,104053.38
2023-02-12T14:19:32.497Z,104051.56
2023-02-12T14:22:10.017Z,104032.63
2023-02-12T14:24:36.333Z,104059.94
2023-02-12T14:27:18.459Z,104051.53
2023-02-12T14:30:06.697Z,104048.09
2023-02-12T14:32:58.194Z,104044.94
2023-02-12T14:35:43.871Z,104044.38
2023-02-12T14:38:16.038Z,104044.69
2023-02-12T14:40:53.519Z,104048.09
2023-02-12T14:43:56.231Z,104041.59
2023-02-12T14:46:22.632Z,104052.00
2023-02-12T14:48:55.794Z,104032.69
2023-02-12T14:51:43.391Z,104048.28
2023-02-12T14:54:19.809Z,104046.06
2023-02-12T14:56:48.872Z,104037.78
2023-02-12T14:59:20.398Z,104035.75
2023-02-12T15:01:48.697Z,104033.19
2023-02-12T15:04:27.953Z,104036.44
2023-02-12T15:07:12.041Z,104045.00
2023-02-12T15:09:51.871Z,104046.78
2023-02-12T15:12:26.706Z,104019.69
2023-02-12T15:15:05.982Z,104050.25
2023-02-12T15:17:37.857Z,104030.00
2023-02-12T15:20:19.982Z,104038.28
2023-02-12T15:22:46.810Z,103995.66
2023-02-12T15:25:16.600Z,104032.25
2023-02-12T15:27:46.526Z,104034.25
2023-02-12T15:30:25.584Z,104031.75
2023-02-12T15:32:52.932Z,104030.00
2023-02-12T15:35:24.818Z,104037.53
2023-02-12T15:37:51.618Z,104031.31
2023-02-12T15:40:18.366Z,104028.63
2023-02-12T15:42:59.150Z,104028.97
2023-02-12T15:45:31.110Z,104030.13
2023-02-12T15:48:09.278Z,104029.69
2023-02-12T15:51:04.845Z,104022.44
2023-02-12T15:53:31.285Z,104016.28
2023-02-12T15:55:59.554Z,104017.50
2023-02-12T15:58:32.761Z,104029.16
2023-02-12T16:01:05.451Z,104027.53
2023-02-12T16:03:37.000Z,104033.69
2023-02-12T16:06:11.454Z,104034.81
2023-02-12T16:08:38.979Z,104037.47
2023-02-12T16:11:15.898Z,104037.22
2023-02-12T16:13:52.332Z,104036.78
2023-02-12T16:16:29.933Z,104029.38
2023-02-12T16:19:08.325Z,104034.88
2023-02-12T16:21:38.406Z,104036.63
2023-02-12T16:24:05.993Z,104034.44
2023-02-12T16:26:32.568Z,104017.16
2023-02-12T16:28:59.188Z,104039.66
2023-02-12T16:31:27.311Z,104044.56
2023-02-12T16:33:57.695Z,104040.31
2023-02-12T16:36:24.002Z,104041.09
2023-02-12T16:39:04.885Z,104026.00
2023-02-12T16:41:52.616Z,104037.13
2023-02-12T16:44:27.809Z,104035.38
2023-02-12T16:46:58.664Z,104025.53
2023-02-12T16:49:27.517Z,104039.38
2023-02-12T16:52:32.599Z,104047.16
2023-02-12T16:54:58.948Z,104043.63
2023-02-12T16:57:25.355Z,104048.03
2023-02-12T16:59:51.766Z,104053.41
2023-02-12T17:02:18.160Z,104048.38
2023-02-12T17:04:44.612Z,104053.88
2023-02-12T17:07:31.626Z,104046.97
2023-02-12T17:09:57.979Z,104055.97
2023-02-12T17:12:24.671Z,104047.13
2023-02-12T17:14:51.351Z,104040.88
2023-02-12T17:17:18.077Z,104064.00
2023-02-12T17:19:44.531Z,104070.31
2023-02-12T17:22:21.480Z,104059.03
2023-02-12T17:24:53.032Z,104081.03
2023-02-12T17:27:19.519Z,104051.34
2023-02-12T17:29:46.416Z,104083.44
2023-02-12T17:32:13.026Z,104076.50
2023-02-12T17:34:48.046Z,104079.00
2023-02-12T17:37:14.970Z,104090.84
2023-02-12T17:39:41.329Z,104095.19
2023-02-12T17:42:07.784Z,104091.09
2023-02-12T17:44:34.149Z,104092.91
2023-02-12T17:47:00.557Z,104103.47
2023-02-12T17:49:26.942Z,104099.34
2023-02-12T17:51:53.341Z,104100.22
2023-02-12T17:54:19.763Z,104087.25
2023-02-12T17:56:46.125Z,104108.03
2023-02-12T17:59:12.524Z,104112.13
2023-02-12T18:01:40.273Z,104119.97
2023-02-12T18:04:06.886Z,104121.28
2023-02-12T18:06:33.367Z,104112.47
2023-02-12T18:09:01.737Z,104116.06
2023-02-12T18:11:29.258Z,104077.31
2023-02-12T18:13:57.401Z,104112.47
2023-02-12T18:16:27.127Z,104117.19
2023-02-12T18:18:54.211Z,104115.31
2023-02-12T18:21:20.844Z,104102.22
2023-02-12T18:23:47.324Z,104114.75
2023-02-12T18:26:18.473Z,104114.22
2023-02-12T18:28:45.586Z,104115.34
2023-02-12T18:31:12.805Z,104113.00
2023-02-12T18:33:39.459Z,104121.59
2023-02-12T18:36:08.932Z,104122.44
2023-02-12T18:38:36.985Z,104120.13
2023-02-12T18:41:12.440Z,104122.16
2023-02-12T18:43:38.927Z,104117.81
2023-02-12T18:46:10.698Z,104116.38
2023-02-12T18:48:37.607Z,104115.81
2023-02-12T18:51:06.400Z,104116.69
2023-02-12T18:53:33.268Z,104089.34
2023-02-12T18:56:04.413Z,104121.34
2023-02-12T18:58:30.757Z,104123.16
2023-02-12T19:00:57.487Z,104123.78
2023-02-12T19:03:24.984Z,104118.34
2023-02-12T19:05:51.364Z,104117.47
2023-02-12T19:08:17.746Z,104120.06
2023-02-12T19:10:44.557Z,104114.53
2023-02-12T19:13:11.097Z,104110.19
2023-02-12T19:15:40.781Z,104093.97
2023-02-12T19:18:07.490Z,104114.22
2023-02-12T19:20:33.928Z,104114.28
2023-02-12T19:23:00.674Z,104123.25
2023-02-12T19:25:27.081Z,104122.19
2023-02-12T19:27:53.566Z,104112.72
2023-02-12T19:30:19.952Z,104122.38
2023-02-12T19:32:46.384Z,104128.63
2023-02-12T19:35:12.784Z,104119.88
2023-02-12T19:37:39.136Z,104130.53
2023-02-12T19:40:06.178Z,104120.88
2023-02-12T19:42:33.771Z,104114.59
2023-02-12T19:45:00.255Z,104114.91
2023-02-12T19:47:26.942Z,104123.56
2023-02-12T19:49:53.919Z,104122.84
2023-02-12T19:52:20.341Z,104092.50
2023-02-12T19:54:46.934Z,104120.88
2023-02-12T19:57:13.752Z,104122.84
2023-02-12T19:59:41.049Z,104114.47
2023-02-12T20:02:09.352Z,104119.00
2023-02-12T20:04:35.803Z,104114.75
2023-02-12T20:07:02.365Z,104115.84
2023-02-12T20:09:28.924Z,104122.13
2023-02-12T20:11:56.945Z,104117.25
2023-02-12T20:14:23.661Z,104126.63
2023-02-12T20:16:51.025Z,104112.00
2023-02-12T20:19:23.062Z,104099.59
2023-02-12T20:21:55.118Z,104118.09
2023-02-12T20:24:26.682Z,104120.25
2023-02-12T20:26:53.524Z,104115.38
2023-02-12T20:29:20.061Z,104113.03
2023-02-12T20:31:46.898Z,104115.75
2023-02-12T20:34:16.603Z,104117.75
2023-02-12T20:36:47.650Z,104119.75
2023-02-12T20:39:17.583Z,104115.50
2023-02-12T20:41:44.006Z,104111.25
2023-02-12T20:44:13.986Z,104111.59
2023-02-12T20:46:42.165Z,104113.47
2023-02-12T20:49:12.464Z,104114.56
2023-02-12T20:51:38.835Z,104115.25
2023-02-12T20:54:05.229Z,104102.19
2023-02-12T20:56:33.995Z,104101.19
2023-02-12T20:59:01.100Z,104109.72
2023-02-12T21:01:32.685Z,104114.25
2023-02-12T21:04:06.416Z,104114.41
2023-02-12T21:06:33.627Z,104118.16
2023-02-12T21:09:01.393Z,104111.41
2023-02-12T21:11:29.235Z,104111.41
2023-02-12T21:14:02.217Z,104114.25
2023-02-12T21:16:31.041Z,104106.22
2023-02-12T21:18:57.558Z,104112.00
2023-02-12T21:21:27.653Z,104107.16
2023-02-12T21:23:57.097Z,104117.56
2023-02-12T21:26:25.588Z,104111.41
2023-02-12T21:28:53.123Z,104113.63
2023-02-12T21:31:23.310Z,104115.38
2023-02-12T21:33:51.358Z,104103.25
2023-02-12T21:36:23.462Z,104111.72
2023-02-12T21:38:51.433Z,104106.38
2023-02-12T21:41:21.375Z,104110.31
2023-02-12T21:43:51.318Z,104109.81
2023-02-12T21:46:19.029Z,104099.75
2023-02-12T21:48:45.655Z,104119.03
2023-02-12T21:51:31.264Z,104106.09
2023-02-12T21:54:02.815Z,104096.56
2023-02-12T21:56:29.690Z,104092.06
2023-02-12T21:58:57.576Z,104086.09
2023-02-12T22:01:32.127Z,104106.09
2023-02-12T22:04:01.556Z,104109.06
2023-02-12T22:06:28.029Z,104102.59
2023-02-12T22:08:55.971Z,104098.16
2023-02-12T22:11:23.114Z,104075.09
2023-02-12T22:13:49.838Z,104067.25
2023-02-12T22:16:24.450Z,104094.84
2023-02-12T22:18:57.309Z,104072.31
2023-02-12T22:21:25.019Z,104097.38
2023-02-12T22:23:52.417Z,104098.59
2023-02-12T22:26:25.513Z,104089.94
2023-02-12T22:28:57.950Z,104095.16
2023-02-12T22:31:26.866Z,104092.31
2023-02-12T22:33:55.269Z,104096.69
2023-02-12T22:36:21.933Z,104091.72
2023-02-12T22:38:49.096Z,104070.56
2023-02-12T22:41:15.693Z,104094.91
2023-02-12T22:43:42.089Z,104088.63
2023-02-12T22:46:10.785Z,104096.78
2023-02-12T22:48:37.328Z,104093.81
2023-02-12T22:51:15.589Z,104097.72
2023-02-12T22:53:41.938Z,104082.13
2023-02-12T22:56:09.390Z,104094.84
2023-02-12T22:58:37.012Z,104099.47
2023-02-12T23:01:13.412Z,104103.06
2023-02-12T23:03:40.217Z,104094.63
2023-02-12T23:06:18.501Z,104091.78
2023-02-12T23:08:45.344Z,104093.69
2023-02-12T23:11:12.145Z,104099.06
2023-02-12T23:13:38.908Z,104061.03
2023-02-12T23:16:05.734Z,104082.13
2023-02-12T23:18:32.528Z,104083.78
2023-02-12T23:20:59.270Z,104091.09
2023-02-12T23:23:25.966Z,104088.34
2023-02-12T23:25:54.310Z,104093.53
2023-02-12T23:28:21.791Z,104080.81
2023-02-12T23:30:48.949Z,104074.53
2023-02-12T23:33:15.730Z,104084.75
2023-02-12T23:35:43.564Z,104083.28
2023-02-12T23:38:10.066Z,104082.25
2023-02-12T23:40:36.450Z,104080.63
2023-02-12T23:43:02.843Z,104079.53
2023-02-12T23:45:29.280Z,104079.41
2023-02-12T23:47:55.767Z,104048.66
2023-02-12T23:50:22.674Z,104074.75
2023-02-12T23:52:49.695Z,104075.31
2023-02-12T23:55:16.369Z,104071.38
2023-02-12T23:57:42.732Z,104063.25
